createdAt,value
2018-09-23T00:02:22.462Z,100469.19
2018-09-23T00:04:50.430Z,100472.05
2018-09-23T00:07:18.422Z,100470.00
2018-09-23T00:09:46.570Z,100462.59
2018-09-23T00:12:14.548Z,100455.45
2018-09-23T00:14:42.543Z,100450.30
2018-09-23T00:17:10.526Z,100443.82
2018-09-23T00:19:38.510Z,100431.40
2018-09-23T00:22:06.811Z,100415.30
2018-09-23T00:24:34.875Z,100418.27
2018-09-23T00:27:02.841Z,100417.42
2018-09-23T00:29:36.536Z,100416.61
2018-09-23T00:32:04.469Z,100404.78
2018-09-23T00:34:32.456Z,100414.08
2018-09-23T00:37:07.182Z,100402.02
2018-09-23T00:39:35.447Z,100398.08
2018-09-23T00:42:03.419Z,100389.26
2018-09-23T00:44:31.464Z,100381.00
2018-09-23T00:46:59.460Z,100384.22
2018-09-23T00:49:27.732Z,100384.59
2018-09-23T00:51:55.805Z,100396.89
2018-09-23T00:54:23.849Z,100394.86
2018-09-23T00:56:51.910Z,100397.82
2018-09-23T00:59:19.934Z,100395.34
2018-09-23T01:01:47.894Z,100404.17
2018-09-23T01:04:16.221Z,100403.70
2018-09-23T01:06:44.151Z,100407.52
2018-09-23T01:09:12.176Z,100399.29
2018-09-23T01:11:40.163Z,100397.02
2018-09-23T01:14:08.186Z,100389.96
2018-09-23T01:16:36.146Z,100387.46
2018-09-23T01:19:04.155Z,100376.95
2018-09-23T01:21:32.084Z,100368.81
2018-09-23T01:24:00.055Z,100360.22
2018-09-23T01:26:28.140Z,100358.91
2018-09-23T01:28:56.220Z,100360.57
2018-09-23T01:31:24.333Z,100360.57
2018-09-23T01:33:52.345Z,100358.80
2018-09-23T01:36:20.347Z,100357.45
2018-09-23T01:38:48.415Z,100358.30
2018-09-23T01:41:16.435Z,100365.08
2018-09-23T01:43:44.485Z,100367.81
2018-09-23T01:46:12.531Z,100361.70
2018-09-23T01:48:40.548Z,100353.70
2018-09-23T01:51:08.679Z,100351.66
2018-09-23T01:53:36.649Z,100349.05
2018-09-23T01:56:04.825Z,100340.05
2018-09-23T01:58:32.885Z,100346.37
2018-09-23T02:01:00.901Z,100341.48
2018-09-23T02:03:28.953Z,100326.16
2018-09-23T02:05:57.032Z,100317.44
2018-09-23T02:08:25.205Z,100316.61
2018-09-23T02:10:53.400Z,100316.52
2018-09-23T02:13:21.500Z,100316.58
2018-09-23T02:15:49.548Z,100323.88
2018-09-23T02:18:17.488Z,100325.93
2018-09-23T02:20:45.588Z,100318.58
2018-09-23T02:23:13.603Z,100317.78
2018-09-23T02:25:41.628Z,100314.78
2018-09-23T02:28:09.581Z,100308.18
2018-09-23T02:30:37.608Z,100313.49
2018-09-23T02:33:12.160Z,100311.01
2018-09-23T02:35:40.320Z,100309.32
2018-09-23T02:38:08.300Z,100311.03
2018-09-23T02:40:36.266Z,100303.00
2018-09-23T02:43:04.256Z,100289.94
2018-09-23T02:45:32.376Z,100288.26
2018-09-23T02:48:00.454Z,100279.62
2018-09-23T02:50:28.648Z,100273.88
2018-09-23T02:52:56.630Z,100264.59
2018-09-23T02:55:24.713Z,100262.31
2018-09-23T02:57:52.792Z,100253.56
2018-09-23T03:00:20.815Z,100255.48
2018-09-23T03:02:48.960Z,100253.30
2018-09-23T03:05:16.960Z,100249.92
2018-09-23T03:07:45.020Z,100256.27
2018-09-23T03:10:13.150Z,100256.73
2018-09-23T03:12:41.202Z,100247.41
2018-09-23T03:15:09.183Z,100244.97
2018-09-23T03:17:37.188Z,100245.00
2018-09-23T03:20:05.381Z,100237.16
2018-09-23T03:22:33.354Z,100230.61
2018-09-23T03:25:01.276Z,100226.52
2018-09-23T03:27:29.353Z,100216.75
2018-09-23T03:29:57.296Z,100211.16
2018-09-23T03:32:25.381Z,100219.61
2018-09-23T03:34:53.361Z,100220.84
2018-09-23T03:37:21.490Z,100222.05
2018-09-23T03:39:49.510Z,100220.14
2018-09-23T03:42:17.654Z,100216.83
2018-09-23T03:44:45.590Z,100214.25
2018-09-23T03:47:13.593Z,100204.58
2018-09-23T03:49:41.573Z,100201.47
2018-09-23T03:52:09.559Z,100195.75
2018-09-23T03:54:37.476Z,100191.84
2018-09-23T03:57:05.446Z,100191.14
2018-09-23T03:59:33.422Z,100183.74
2018-09-23T04:02:01.407Z,100184.00
2018-09-23T04:04:29.452Z,100170.15
2018-09-23T04:06:57.502Z,100172.55
2018-09-23T04:09:25.544Z,100168.48
2018-09-23T04:11:53.726Z,100155.13
2018-09-23T04:14:22.816Z,100142.70
2018-09-23T04:16:50.799Z,100137.19
2018-09-23T04:19:18.770Z,100123.70
2018-09-23T04:21:46.749Z,100112.37
2018-09-23T04:24:14.696Z,100105.65
2018-09-23T04:26:42.705Z,100098.86
2018-09-23T04:29:10.661Z,100104.97
2018-09-23T04:31:38.666Z,100107.94
2018-09-23T04:34:06.820Z,100107.23
2018-09-23T04:36:34.798Z,100112.85
2018-09-23T04:39:03.163Z,100130.98
2018-09-23T04:41:32.210Z,100146.49
2018-09-23T04:44:00.208Z,100144.92
2018-09-23T04:46:28.285Z,100135.84
2018-09-23T04:48:56.237Z,100124.86
2018-09-23T04:51:24.265Z,100123.81
2018-09-23T04:53:52.256Z,100121.86
2018-09-23T04:56:20.182Z,100125.02
2018-09-23T04:58:48.153Z,100122.88
2018-09-23T05:01:16.120Z,100111.62
2018-09-23T05:03:44.065Z,100111.13
2018-09-23T05:06:12.056Z,100113.30
2018-09-23T05:08:40.088Z,100116.49
2018-09-23T05:11:08.133Z,100116.83
2018-09-23T05:13:36.216Z,100120.17
2018-09-23T05:16:04.224Z,100106.81
2018-09-23T05:18:32.294Z,100094.00
2018-09-23T05:21:00.400Z,100085.40
2018-09-23T05:23:28.393Z,100088.37
2018-09-23T05:25:56.461Z,100100.91
2018-09-23T05:28:24.805Z,100095.41
2018-09-23T05:30:52.902Z,100085.13
2018-09-23T05:33:21.021Z,100077.36
2018-09-23T05:35:49.130Z,100061.03
2018-09-23T05:38:17.148Z,100080.95
2018-09-23T05:40:45.086Z,100087.53
2018-09-23T05:43:13.106Z,100086.92
2018-09-23T05:45:41.071Z,100098.00
2018-09-23T05:48:09.030Z,100104.86
2018-09-23T05:50:37.081Z,100104.14
2018-09-23T05:53:05.226Z,100106.06
2018-09-23T05:55:33.220Z,100104.41
2018-09-23T05:58:01.226Z,100113.46
2018-09-23T06:00:31.611Z,100093.25
2018-09-23T06:02:59.795Z,100075.75
2018-09-23T06:05:27.760Z,100075.11
2018-09-23T06:07:55.766Z,100082.06
2018-09-23T06:10:23.728Z,100090.63
2018-09-23T06:12:51.769Z,100084.75
2018-09-23T06:15:19.736Z,100086.22
2018-09-23T06:17:47.860Z,100068.42
2018-09-23T06:20:15.770Z,100066.95
2018-09-23T06:22:43.741Z,100055.34
2018-09-23T06:25:11.778Z,100053.20
2018-09-23T06:27:39.788Z,100053.35
2018-09-23T06:30:07.921Z,100055.55
2018-09-23T06:32:35.915Z,100043.34
2018-09-23T06:35:03.991Z,100043.34
2018-09-23T06:37:32.001Z,100057.42
2018-09-23T06:39:59.985Z,100063.94
2018-09-23T06:42:28.045Z,100067.66
2018-09-23T06:44:56.028Z,100063.55
2018-09-23T06:47:24.115Z,100070.46
2018-09-23T06:49:52.097Z,100074.63
2018-09-23T06:52:20.062Z,100065.76
2018-09-23T06:54:48.077Z,100063.93
2018-09-23T06:57:16.051Z,100051.67
2018-09-23T06:59:44.000Z,100051.98
2018-09-23T07:02:11.886Z,100037.63
2018-09-23T07:04:40.015Z,100038.83
2018-09-23T07:07:07.893Z,100052.80
2018-09-23T07:09:35.892Z,100042.16
2018-09-23T07:12:03.886Z,100040.91
2018-09-23T07:14:31.961Z,100050.23
2018-09-23T07:16:59.897Z,100060.54
2018-09-23T07:19:28.040Z,100066.50
2018-09-23T07:21:56.094Z,100069.41
2018-09-23T07:24:24.214Z,100054.08
2018-09-23T07:26:52.335Z,100047.11
2018-09-23T07:29:20.555Z,100038.39
2018-09-23T07:31:48.640Z,100033.69
2018-09-23T07:34:16.702Z,100027.81
2018-09-23T07:36:44.779Z,100026.16
2018-09-23T07:39:12.763Z,100026.59
2018-09-23T07:41:40.713Z,100036.63
2018-09-23T07:44:09.108Z,100045.01
2018-09-23T07:46:37.073Z,100045.62
2018-09-23T07:49:05.368Z,100033.05
2018-09-23T07:51:33.373Z,100025.61
2018-09-23T07:54:01.477Z,100011.34
2018-09-23T07:56:29.615Z,100015.23
2018-09-23T07:58:57.576Z,100021.41
2018-09-23T08:01:25.565Z,100001.82
2018-09-23T08:03:53.505Z,99991.36
2018-09-23T08:06:21.461Z,99989.28
2018-09-23T08:08:49.336Z,99997.09
2018-09-23T08:11:17.520Z,99985.12
2018-09-23T08:13:45.682Z,99978.80
2018-09-23T08:16:13.595Z,99982.55
2018-09-23T08:18:41.563Z,99990.05
2018-09-23T08:21:09.871Z,99991.41
2018-09-23T08:23:38.011Z,99983.80
2018-09-23T08:26:06.515Z,99980.18
2018-09-23T08:28:34.453Z,99982.61
2018-09-23T08:31:02.402Z,99988.64
2018-09-23T08:33:30.525Z,99976.80
2018-09-23T08:35:58.541Z,99963.02
2018-09-23T08:38:26.431Z,99948.75
2018-09-23T08:40:54.385Z,99958.98
2018-09-23T08:43:22.442Z,99962.73
2018-09-23T08:45:50.697Z,99966.27
2018-09-23T08:48:18.751Z,99962.86
2018-09-23T08:50:46.720Z,99966.07
2018-09-23T08:53:14.693Z,99957.89
2018-09-23T08:55:42.719Z,99940.78
2018-09-23T08:58:10.865Z,99923.38
2018-09-23T09:00:38.893Z,99914.03
2018-09-23T09:03:07.014Z,99909.27
2018-09-23T09:05:34.957Z,99913.07
2018-09-23T09:08:02.887Z,99911.38
2018-09-23T09:10:30.852Z,99895.98
2018-09-23T09:12:58.888Z,99899.41
2018-09-23T09:15:27.085Z,99892.44
2018-09-23T09:17:55.009Z,99893.99
2018-09-23T09:20:23.110Z,99896.59
2018-09-23T09:22:51.274Z,99894.67
2018-09-23T09:25:19.277Z,99885.02
2018-09-23T09:27:53.296Z,99878.96
2018-09-23T09:30:27.530Z,99872.91
2018-09-23T09:32:55.461Z,99876.03
2018-09-23T09:35:34.122Z,99876.20
2018-09-23T09:38:02.736Z,99870.62
2018-09-23T09:40:35.086Z,99868.52
2018-09-23T09:43:08.445Z,99868.41
2018-09-23T09:45:47.142Z,99857.89
2018-09-23T09:48:23.071Z,99853.03
2018-09-23T09:51:23.991Z,99841.87
2018-09-23T09:53:56.959Z,99834.20
2018-09-23T09:56:26.500Z,99844.06
2018-09-23T09:58:58.173Z,99833.47
2018-09-23T10:01:27.496Z,99828.69
2018-09-23T10:03:55.579Z,99835.31
2018-09-23T10:06:24.539Z,99820.70
2018-09-23T10:08:52.543Z,99816.76
2018-09-23T10:11:21.431Z,99813.41
2018-09-23T10:13:50.402Z,99809.19
2018-09-23T10:16:18.645Z,99793.36
2018-09-23T10:18:46.815Z,99791.84
2018-09-23T10:21:15.025Z,99794.38
2018-09-23T10:23:43.384Z,99798.33
2018-09-23T10:26:11.723Z,99805.33
2018-09-23T10:28:40.056Z,99798.33
2018-09-23T10:31:08.334Z,99786.28
2018-09-23T10:33:36.431Z,99780.02
2018-09-23T10:36:04.650Z,99777.36
2018-09-23T10:38:32.789Z,99776.87
2018-09-23T10:41:01.359Z,99770.00
2018-09-23T10:43:29.566Z,99772.40
2018-09-23T10:45:57.962Z,99770.98
2018-09-23T10:48:26.087Z,99770.55
2018-09-23T10:50:54.441Z,99769.39
2018-09-23T10:53:22.570Z,99770.18
2018-09-23T10:55:50.831Z,99764.92
2018-09-23T10:58:18.955Z,99757.45
2018-09-23T11:00:47.122Z,99755.21
2018-09-23T11:03:15.261Z,99756.30
2018-09-23T11:05:43.602Z,99754.70
2018-09-23T11:08:11.821Z,99752.36
2018-09-23T11:10:40.082Z,99765.69
2018-09-23T11:13:08.530Z,99771.98
2018-09-23T11:15:36.631Z,99780.45
2018-09-23T11:18:04.958Z,99788.27
2018-09-23T11:20:33.153Z,99769.64
2018-09-23T11:23:01.411Z,99769.02
2018-09-23T11:25:29.711Z,99774.05
2018-09-23T11:27:57.879Z,99781.44
2018-09-23T11:30:26.104Z,99771.41
2018-09-23T11:32:54.390Z,99764.22
2018-09-23T11:35:22.591Z,99754.94
2018-09-23T11:37:50.870Z,99730.73
2018-09-23T11:40:19.290Z,99731.36
2018-09-23T11:42:47.574Z,99723.76
2018-09-23T11:45:15.756Z,99730.66
2018-09-23T11:47:44.058Z,99730.00
2018-09-23T11:50:12.286Z,99741.83
2018-09-23T11:52:40.517Z,99748.95
2018-09-23T11:55:08.753Z,99739.20
2018-09-23T11:57:36.959Z,99727.50
2018-09-23T12:00:06.108Z,99701.58
2018-09-23T12:02:34.510Z,99677.17
2018-09-23T12:05:02.780Z,99662.84
2018-09-23T12:07:31.110Z,99650.89
2018-09-23T12:09:59.324Z,99637.83
2018-09-23T12:12:27.659Z,99631.20
2018-09-23T12:14:55.906Z,99621.97
2018-09-23T12:17:24.272Z,99629.29
2018-09-23T12:19:52.537Z,99637.67
2018-09-23T12:22:20.777Z,99618.33
2018-09-23T12:24:49.035Z,99615.27
2018-09-23T12:27:17.319Z,99609.88
2018-09-23T12:29:45.538Z,99601.87
2018-09-23T12:32:13.920Z,99604.71
2018-09-23T12:34:42.132Z,99590.72
2018-09-23T12:37:10.620Z,99591.83
2018-09-23T12:39:38.778Z,99588.09
2018-09-23T12:42:07.384Z,99582.59
2018-09-23T12:44:35.604Z,99593.14
2018-09-23T12:47:03.890Z,99615.93
2018-09-23T12:49:32.118Z,99610.59
2018-09-23T12:52:01.271Z,99590.41
2018-09-23T12:54:29.659Z,99574.09
2018-09-23T12:56:57.902Z,99540.68
2018-09-23T12:59:26.109Z,99534.86
2018-09-23T13:01:54.332Z,99560.97
2018-09-23T13:04:23.677Z,99579.60
2018-09-23T13:06:52.126Z,99601.98
2018-09-23T13:09:20.431Z,99641.18
2018-09-23T13:11:49.249Z,99675.49
2018-09-23T13:14:17.629Z,99700.24
2018-09-23T13:16:46.408Z,99704.02
2018-09-23T13:19:14.628Z,99708.86
2018-09-23T13:21:43.074Z,99737.62
2018-09-23T13:24:11.501Z,99737.42
2018-09-23T13:26:39.727Z,99663.59
2018-09-23T13:29:08.060Z,99647.26
2018-09-23T13:31:36.327Z,99638.62
2018-09-23T13:34:04.621Z,99630.47
2018-09-23T13:36:34.852Z,99619.83
2018-09-23T13:39:04.465Z,99611.74
2018-09-23T13:41:33.805Z,99615.32
2018-09-23T13:44:02.365Z,99618.93
2018-09-23T13:46:31.930Z,99641.95
2018-09-23T13:49:00.868Z,99689.45
2018-09-23T13:51:29.066Z,99666.09
2018-09-23T13:53:58.288Z,99644.09
2018-09-23T13:56:26.539Z,99616.72
2018-09-23T13:58:55.657Z,99647.91
2018-09-23T14:01:24.673Z,99668.42
2018-09-23T14:03:52.955Z,99657.22
2018-09-23T14:06:22.153Z,99654.80
2018-09-23T14:08:50.489Z,99655.44
2018-09-23T14:11:19.906Z,99651.64
2018-09-23T14:16:22.651Z,99664.09
2018-09-23T14:19:01.150Z,99683.01
2018-09-23T14:21:46.465Z,99692.32
2018-09-23T14:24:26.369Z,99673.13
2018-09-23T14:27:05.532Z,99696.05
2018-09-23T14:29:39.090Z,99680.23
2018-09-23T14:36:47.764Z,99614.41
2018-09-23T14:39:23.801Z,99614.75
2018-09-23T14:41:58.685Z,99656.25
2018-09-23T14:44:37.344Z,99683.75
2018-09-23T14:47:08.542Z,99689.98
2018-09-23T14:49:49.762Z,99701.36
2018-09-23T14:52:22.274Z,99712.59
2018-09-23T14:54:51.539Z,99705.02
2018-09-23T14:57:26.524Z,99723.95
2018-09-23T14:59:55.485Z,99712.80
2018-09-23T15:02:28.445Z,99729.34
2018-09-23T15:04:58.742Z,99704.50
2018-09-23T15:07:27.633Z,99680.78
2018-09-23T15:10:01.393Z,99703.09
2018-09-23T15:12:31.554Z,99704.14
2018-09-23T15:15:04.918Z,99714.02
2018-09-23T15:17:44.270Z,99720.65
2018-09-23T15:20:20.493Z,99745.65
2018-09-23T15:22:58.315Z,99764.41
2018-09-23T15:25:32.078Z,99761.73
2018-09-23T15:28:18.526Z,99771.30
2018-09-23T15:30:58.408Z,99740.03
2018-09-23T15:33:29.319Z,99752.98
2018-09-23T15:35:58.097Z,99787.37
2018-09-23T15:38:27.009Z,99841.54
2018-09-23T15:40:56.352Z,99866.88
2018-09-23T15:43:24.663Z,99846.75
2018-09-23T15:45:57.931Z,99840.23
2018-09-23T15:48:27.018Z,99847.17
2018-09-23T15:50:57.386Z,99867.41
2018-09-23T15:53:27.230Z,99868.87
2018-09-23T15:55:56.605Z,99850.55
2018-09-23T15:58:26.434Z,99843.05
2018-09-23T16:01:08.077Z,99859.27
2018-09-23T16:03:40.863Z,99844.96
2018-09-23T16:15:33.720Z,99817.80
2018-09-23T16:18:17.535Z,99837.31
2018-09-23T16:20:57.298Z,99848.97
2018-09-23T16:28:38.105Z,99853.39
2018-09-23T16:31:18.135Z,99910.39
2018-09-23T16:33:52.117Z,99938.02
2018-09-23T16:36:22.980Z,99946.31
2018-09-23T16:38:52.708Z,99965.84
2018-09-23T16:41:23.635Z,99983.88
2018-09-23T16:43:52.028Z,99989.12
2018-09-23T16:46:20.433Z,99981.88
2018-09-23T16:48:48.823Z,99975.92
2018-09-23T16:51:17.301Z,99987.70
2018-09-23T16:53:45.583Z,99996.55
2018-09-23T16:56:14.025Z,100011.34
2018-09-23T16:58:42.281Z,100005.73
2018-09-23T17:01:10.641Z,100015.16
2018-09-23T17:03:38.933Z,100015.01
2018-09-23T17:06:07.163Z,100032.05
2018-09-23T17:08:35.410Z,100041.60
2018-09-23T17:11:03.930Z,100048.40
2018-09-23T17:13:32.269Z,100047.80
2018-09-23T17:16:00.525Z,100055.30
2018-09-23T17:18:30.731Z,100059.59
2018-09-23T17:21:02.976Z,100065.80
2018-09-23T17:23:31.945Z,100071.27
2018-09-23T17:26:00.313Z,100079.48
2018-09-23T17:28:28.784Z,100085.56
2018-09-23T17:30:57.864Z,100087.59
2018-09-23T17:33:26.110Z,100095.70
2018-09-23T17:35:54.516Z,100109.05
2018-09-23T17:38:23.496Z,100113.33
2018-09-23T17:40:52.451Z,100119.16
2018-09-23T17:43:24.123Z,100123.33
2018-09-23T17:46:31.007Z,100136.58
2018-09-23T17:49:28.027Z,100146.72
2018-09-23T19:11:36.203Z,100410.70
2018-09-23T19:17:40.147Z,100421.09
2018-09-23T19:20:21.283Z,100425.28
2018-09-23T19:23:00.437Z,100414.05
2018-09-23T19:25:46.082Z,100416.53
2018-09-23T19:34:04.020Z,100449.23
2018-09-23T19:36:39.393Z,100459.24
2018-09-23T19:39:10.474Z,100467.70
2018-09-23T19:41:42.168Z,100468.66
2018-09-23T19:44:10.644Z,100476.67
2018-09-23T19:46:38.746Z,100486.69
2018-09-23T19:49:07.083Z,100494.80
2018-09-23T19:51:35.202Z,100501.61
2018-09-23T19:54:04.583Z,100510.41
2018-09-23T19:56:32.711Z,100517.47
2018-09-23T19:59:01.015Z,100529.02
2018-09-23T20:01:29.255Z,100535.10
2018-09-23T20:03:59.133Z,100539.52
2018-09-23T20:06:27.320Z,100545.12
2018-09-23T20:08:56.341Z,100557.53
2018-09-23T20:11:24.750Z,100555.39
2018-09-23T20:13:53.001Z,100559.77
2018-09-23T20:16:21.141Z,100566.81
2018-09-23T20:18:49.370Z,100574.91
2018-09-23T20:21:17.522Z,100582.33
2018-09-23T20:23:45.750Z,100590.20
2018-09-23T20:26:13.733Z,100594.62
2018-09-23T20:28:42.019Z,100602.84
2018-09-23T20:31:10.287Z,100614.42
2018-09-23T20:33:38.693Z,100608.58
2018-09-23T20:36:06.976Z,100617.50
2018-09-23T20:38:35.201Z,100619.20
2018-09-23T20:41:03.378Z,100620.60
2018-09-23T20:43:31.517Z,100627.90
2018-09-23T20:45:59.805Z,100633.72
2018-09-23T20:48:28.083Z,100631.48
2018-09-23T20:50:56.222Z,100641.59
2018-09-23T20:53:24.507Z,100637.02
2018-09-23T20:55:52.639Z,100650.72
2018-09-23T20:58:20.890Z,100661.53
2018-09-23T21:00:49.072Z,100654.14
2018-09-23T21:03:17.264Z,100669.53
2018-09-23T21:05:45.612Z,100674.39
2018-09-23T21:08:13.882Z,100679.86
2018-09-23T21:10:42.060Z,100681.48
2018-09-23T21:13:10.227Z,100681.61
2018-09-23T21:15:38.317Z,100691.59
2018-09-23T21:18:06.519Z,100684.86
2018-09-23T21:20:34.775Z,100694.27
2018-09-23T21:23:02.919Z,100693.43
2018-09-23T21:25:30.942Z,100709.13
2018-09-23T21:27:58.900Z,100714.11
2018-09-23T21:30:27.101Z,100716.59
2018-09-23T21:32:55.072Z,100722.35
2018-09-23T21:35:23.355Z,100724.71
2018-09-23T21:37:51.883Z,100736.51
2018-09-23T21:40:19.948Z,100751.63
2018-09-23T21:42:47.908Z,100755.73
2018-09-23T21:45:16.027Z,100751.44
2018-09-23T21:47:44.028Z,100764.77
2018-09-23T21:50:12.357Z,100761.39
2018-09-23T21:52:40.221Z,100772.84
2018-09-23T21:55:08.304Z,100773.34
2018-09-23T21:57:36.365Z,100768.84
2018-09-23T22:00:06.126Z,100778.31
2018-09-23T22:02:34.032Z,100780.09
2018-09-23T22:05:02.035Z,100780.66
2018-09-23T22:07:30.042Z,100787.41
2018-09-23T22:09:58.032Z,100790.80
2018-09-23T22:12:26.043Z,100798.66
2018-09-23T22:14:54.047Z,100797.28
2018-09-23T22:17:21.996Z,100805.06
2018-09-23T22:19:49.946Z,100814.80
2018-09-23T22:22:17.826Z,100815.00
2018-09-23T22:24:45.849Z,100827.26
2018-09-23T22:27:13.786Z,100834.38
2018-09-23T22:29:41.840Z,100838.50
2018-09-23T22:32:09.792Z,100838.86
2018-09-23T22:34:37.836Z,100839.72
2018-09-23T22:37:06.074Z,100843.66
2018-09-23T22:39:34.113Z,100852.27
2018-09-23T22:42:02.062Z,100854.41
2018-09-23T22:44:30.125Z,100861.16
2018-09-23T22:46:58.159Z,100865.30
2018-09-23T22:49:26.169Z,100871.73
2018-09-23T22:51:54.185Z,100877.08
2018-09-23T22:54:22.319Z,100875.22
2018-09-23T22:56:50.502Z,100892.13
2018-09-23T22:59:18.442Z,100892.71
2018-09-23T23:01:46.433Z,100894.58
2018-09-23T23:04:14.315Z,100896.80
2018-09-23T23:06:42.245Z,100896.72
2018-09-23T23:09:10.168Z,100902.43
2018-09-23T23:11:38.234Z,100907.97
2018-09-23T23:14:06.320Z,100905.72
2018-09-23T23:16:34.273Z,100909.84
2018-09-23T23:19:03.350Z,100911.63
2018-09-23T23:21:31.335Z,100914.69
2018-09-23T23:23:59.324Z,100921.06
2018-09-23T23:26:27.301Z,100910.39
2018-09-23T23:28:55.227Z,100927.41
2018-09-23T23:31:23.180Z,100927.12
2018-09-23T23:33:51.129Z,100929.66
2018-09-23T23:36:19.096Z,100937.80
2018-09-23T23:38:47.018Z,100945.19
2018-09-23T23:41:15.043Z,100951.63
2018-09-23T23:43:43.036Z,100950.59
2018-09-23T23:46:11.078Z,100968.27
2018-09-23T23:48:38.973Z,100969.88
2018-09-23T23:51:06.980Z,100976.69
2018-09-23T23:53:34.937Z,100974.71
2018-09-23T23:56:03.189Z,100985.19
2018-09-23T23:58:31.170Z,100987.08
